createdAt,value
2022-12-27T00:01:26.916Z,100870.94
2022-12-27T00:06:30.962Z,100880.50
2022-12-27T00:11:33.829Z,100889.84
2022-12-27T00:16:38.451Z,100888.06
2022-12-27T00:21:41.268Z,100881.69
2022-12-27T00:26:44.114Z,100882.66
2022-12-27T00:31:48.269Z,100892.44
2022-12-27T00:36:51.061Z,100887.31
2022-12-27T00:41:53.866Z,100888.25
2022-12-27T00:46:58.016Z,100892.28
2022-12-27T00:52:00.762Z,100889.53
2022-12-27T00:57:03.538Z,100894.09
2022-12-27T01:02:07.718Z,100885.59
2022-12-27T01:07:10.583Z,100897.75
2022-12-27T01:12:13.320Z,100895.63
2022-12-27T01:17:17.614Z,100913.03
2022-12-27T01:22:21.383Z,100911.56
2022-12-27T01:27:24.190Z,100896.16
2022-12-27T01:32:28.320Z,100924.13
2022-12-27T01:37:31.513Z,100927.19
2022-12-27T01:42:51.978Z,100929.22
2022-12-27T01:48:02.171Z,100925.81
2022-12-27T01:53:10.831Z,100945.97
2022-12-27T01:58:18.842Z,100924.94
2022-12-27T02:03:26.421Z,100931.94
2022-12-27T02:08:37.477Z,100930.53
2022-12-27T02:13:44.309Z,100930.53
2022-12-27T02:18:48.576Z,100945.81
2022-12-27T02:24:16.355Z,100950.66
2022-12-27T02:29:35.444Z,100953.88
2022-12-27T02:34:49.763Z,100957.84
2022-12-27T02:39:53.895Z,100965.72
2022-12-27T02:45:15.750Z,100962.00
2022-12-27T02:50:36.502Z,100959.94
2022-12-27T02:56:16.204Z,100952.13
2022-12-27T03:01:47.280Z,100952.91
2022-12-27T03:07:16.010Z,100971.81
2022-12-27T03:12:43.803Z,100961.25
2022-12-27T03:17:55.297Z,100959.75
2022-12-27T03:23:19.161Z,100966.97
2022-12-27T03:28:45.905Z,100959.13
2022-12-27T03:33:51.598Z,100973.03
2022-12-27T03:39:04.176Z,100955.31
2022-12-27T03:44:24.140Z,100975.56
2022-12-27T03:49:33.121Z,100992.47
2022-12-27T03:54:38.808Z,100981.41
2022-12-27T03:59:41.947Z,100990.00
2022-12-27T04:04:46.268Z,100982.31
2022-12-27T04:10:06.677Z,100986.19
2022-12-27T04:15:27.980Z,100997.56
2022-12-27T04:20:51.166Z,100991.09
2022-12-27T04:26:11.383Z,101007.94
2022-12-27T04:31:31.672Z,101005.72
2022-12-27T04:36:35.986Z,101005.75
2022-12-27T04:41:56.446Z,101011.28
2022-12-27T04:47:16.841Z,101008.50
2022-12-27T04:52:41.177Z,101006.09
2022-12-27T04:57:44.008Z,100981.88
2022-12-27T05:02:46.891Z,100986.75
2022-12-27T05:08:09.425Z,100987.09
2022-12-27T05:13:30.650Z,101000.72
2022-12-27T05:18:33.403Z,100990.41
2022-12-27T05:24:00.227Z,101017.09
2022-12-27T05:29:08.149Z,101013.59
2022-12-27T05:34:10.905Z,101014.94
2022-12-27T05:39:14.997Z,101002.09
2022-12-27T05:44:17.719Z,101026.78
2022-12-27T05:49:20.659Z,101030.03
2022-12-27T05:54:24.766Z,101036.34
2022-12-27T05:59:27.555Z,101051.47
2022-12-27T06:04:30.297Z,101062.78
2022-12-27T06:09:34.392Z,101073.19
2022-12-27T06:14:37.170Z,101067.41
2022-12-27T06:19:39.960Z,101084.81
2022-12-27T06:24:44.110Z,101084.63
2022-12-27T06:29:46.904Z,101094.09
2022-12-27T06:34:49.643Z,101081.56
2022-12-27T06:39:53.759Z,101080.50
2022-12-27T06:44:56.511Z,101090.31
2022-12-27T06:49:59.268Z,101091.59
2022-12-27T06:55:03.394Z,101096.78
2022-12-27T07:00:07.330Z,101114.56
2022-12-27T07:05:10.423Z,101129.69
2022-12-27T07:10:14.583Z,101147.16
2022-12-27T07:15:17.447Z,101132.06
2022-12-27T07:20:20.211Z,101136.81
2022-12-27T07:25:24.366Z,101124.91
2022-12-27T07:30:27.212Z,101138.34
2022-12-27T07:35:29.988Z,101155.50
2022-12-27T07:40:37.296Z,101166.75
2022-12-27T07:45:40.112Z,101182.50
2022-12-27T07:50:42.878Z,101176.53
2022-12-27T07:55:47.329Z,101186.66
2022-12-27T08:00:52.420Z,101181.19
2022-12-27T08:05:55.383Z,101199.59
2022-12-27T08:11:05.251Z,101196.00
2022-12-27T08:16:11.551Z,101194.47
2022-12-27T08:21:14.627Z,101181.47
2022-12-27T08:26:18.739Z,101205.00
2022-12-27T08:31:21.579Z,101201.34
2022-12-27T08:41:48.296Z,101203.47
2022-12-27T08:46:51.020Z,101204.03
2022-12-27T08:51:53.747Z,101201.16
2022-12-27T08:56:57.848Z,101200.47
2022-12-27T09:02:00.732Z,101219.75
2022-12-27T09:07:03.695Z,101221.34
2022-12-27T09:12:09.482Z,101235.00
2022-12-27T09:17:12.355Z,101236.50
2022-12-27T09:22:15.077Z,101251.09
2022-12-27T09:27:19.124Z,101251.91
2022-12-27T09:32:21.832Z,101270.59
2022-12-27T09:37:24.614Z,101263.97
2022-12-27T09:42:59.001Z,101263.75
2022-12-27T09:48:13.673Z,101268.63
2022-12-27T09:53:21.499Z,101273.19
2022-12-27T09:58:38.065Z,101279.47
2022-12-27T10:03:40.902Z,101266.75
2022-12-27T10:08:52.295Z,101276.28
2022-12-27T10:14:02.636Z,101278.00
2022-12-27T10:19:20.828Z,101278.59
2022-12-27T10:24:27.613Z,101276.06
2022-12-27T10:29:34.097Z,101297.44
2022-12-27T10:34:38.123Z,101295.09
2022-12-27T10:39:41.213Z,101282.09
2022-12-27T10:44:45.382Z,101281.44
2022-12-27T10:50:05.536Z,101281.28
2022-12-27T10:55:35.714Z,101281.41
2022-12-27T11:00:39.900Z,101283.13
2022-12-27T11:05:42.819Z,101287.19
2022-12-27T11:10:45.576Z,101281.72
2022-12-27T11:15:59.017Z,101283.50
2022-12-27T11:21:02.791Z,101288.78
2022-12-27T11:26:07.406Z,101292.00
2022-12-27T11:31:15.165Z,101303.22
2022-12-27T11:36:27.256Z,101315.44
2022-12-27T11:41:38.044Z,101315.00
2022-12-27T11:46:46.343Z,101319.03
2022-12-27T11:52:32.187Z,101308.75
2022-12-27T11:57:57.962Z,101305.38
2022-12-27T12:03:30.489Z,101302.25
2022-12-27T12:09:06.875Z,101289.06
2022-12-27T12:14:35.799Z,101289.84
2022-12-27T12:20:14.837Z,101299.50
2022-12-27T12:25:53.277Z,101283.41
2022-12-27T12:31:12.335Z,101293.94
2022-12-27T12:36:33.073Z,101290.41
2022-12-27T12:42:01.666Z,101283.84
2022-12-27T12:47:16.579Z,101277.97
2022-12-27T12:52:32.338Z,101278.91
2022-12-27T12:57:47.756Z,101269.88
2022-12-27T13:03:16.111Z,101262.94
2022-12-27T13:08:27.300Z,101265.53
2022-12-27T13:13:39.244Z,101259.44
2022-12-27T13:18:52.312Z,101252.28
2022-12-27T13:24:10.291Z,101263.28
2022-12-27T13:29:34.768Z,101247.34
2022-12-27T13:34:52.399Z,101242.38
2022-12-27T13:40:19.156Z,101239.88
2022-12-27T13:45:41.038Z,101234.00
2022-12-27T13:51:09.082Z,101243.31
2022-12-27T13:56:52.717Z,101211.63
2022-12-27T14:02:07.973Z,101210.91
2022-12-27T14:07:50.777Z,101199.47
2022-12-27T14:13:02.580Z,101198.38
2022-12-27T14:18:32.775Z,101205.50
2022-12-27T14:23:49.488Z,101196.81
2022-12-27T14:29:28.380Z,101203.63
2022-12-27T14:34:59.586Z,101195.41
2022-12-27T14:40:34.431Z,101199.31
2022-12-27T14:46:17.235Z,101193.63
2022-12-27T14:52:08.784Z,101187.06
2022-12-27T14:57:25.270Z,101180.16
2022-12-27T15:02:52.756Z,101178.81
2022-12-27T15:08:16.558Z,101177.84
2022-12-27T15:13:29.843Z,101166.13
2022-12-27T15:18:53.057Z,101163.38
2022-12-27T15:24:03.806Z,101175.19
2022-12-27T15:29:22.402Z,101167.13
2022-12-27T15:34:42.091Z,101155.25
2022-12-27T15:39:49.648Z,101161.81
2022-12-27T15:45:03.997Z,101155.59
2022-12-27T15:50:35.600Z,101158.34
2022-12-27T15:56:00.579Z,101163.59
2022-12-27T16:01:30.620Z,101150.78
2022-12-27T16:06:52.195Z,101172.75
2022-12-27T16:12:05.003Z,101168.47
2022-12-27T16:17:28.318Z,101165.66
2022-12-27T16:22:37.535Z,101150.75
2022-12-27T16:27:40.799Z,101154.44
2022-12-27T16:32:49.834Z,101143.53
2022-12-27T16:37:55.859Z,101140.53
2022-12-27T16:43:31.720Z,101134.03
2022-12-27T16:48:48.467Z,101130.94
2022-12-27T16:54:04.902Z,101125.88
2022-12-27T16:59:56.508Z,101132.56
2022-12-27T17:05:00.794Z,101130.34
2022-12-27T17:10:34.725Z,101125.94
2022-12-27T17:15:49.385Z,101135.50
2022-12-27T17:21:04.301Z,101120.59
2022-12-27T17:26:27.758Z,101121.41
2022-12-27T17:31:39.661Z,101113.84
2022-12-27T17:36:52.810Z,101115.69
2022-12-27T17:42:24.419Z,101105.13
2022-12-27T17:47:41.366Z,101109.72
2022-12-27T17:53:20.201Z,101102.53
2022-12-27T17:58:24.555Z,101094.94
2022-12-27T18:03:35.313Z,101096.81
2022-12-27T18:08:38.873Z,101087.00
2022-12-27T18:13:53.896Z,101091.84
2022-12-27T18:18:59.854Z,101083.38
2022-12-27T18:24:02.625Z,101078.72
2022-12-27T18:29:11.423Z,101067.84
2022-12-27T18:34:22.447Z,101065.28
2022-12-27T18:39:29.908Z,101051.84
2022-12-27T18:44:43.558Z,101041.03
2022-12-27T18:49:46.653Z,101034.25
2022-12-27T18:54:49.665Z,101021.25
2022-12-27T19:00:05.144Z,101022.69
2022-12-27T19:05:30.522Z,101023.75
2022-12-27T19:10:34.078Z,101006.28
2022-12-27T19:15:44.035Z,101007.50
2022-12-27T19:20:55.246Z,101006.91
2022-12-27T19:26:05.555Z,101016.63
2022-12-27T19:31:19.349Z,101004.34
2022-12-27T19:36:27.411Z,100990.19
2022-12-27T19:41:31.672Z,100998.81
2022-12-27T19:46:35.872Z,101002.28
2022-12-27T19:51:39.031Z,101002.47
2022-12-27T19:56:41.812Z,101004.38
2022-12-27T20:01:46.499Z,100993.56
2022-12-27T20:06:50.159Z,101009.25
2022-12-27T20:11:53.126Z,101003.53
2022-12-27T20:16:57.325Z,100993.03
2022-12-27T20:22:00.685Z,100984.56
2022-12-27T20:27:03.695Z,100969.03
2022-12-27T20:32:08.049Z,100982.13
2022-12-27T20:37:10.837Z,100966.22
2022-12-27T20:42:13.558Z,100959.69
2022-12-27T20:47:17.709Z,100956.09
2022-12-27T20:52:24.413Z,100970.59
2022-12-27T20:57:31.664Z,100942.34
2022-12-27T21:02:36.194Z,100952.03
2022-12-27T21:07:39.153Z,100933.78
2022-12-27T21:12:41.894Z,100934.00
2022-12-27T21:17:45.991Z,100928.75
2022-12-27T21:22:48.795Z,100927.41
2022-12-27T21:27:51.539Z,100938.28
2022-12-27T21:32:55.672Z,100934.09
2022-12-27T21:37:58.557Z,100938.91
2022-12-27T21:43:01.542Z,100942.75
2022-12-27T21:48:06.004Z,100925.03
2022-12-27T21:53:08.773Z,100923.91
2022-12-27T21:58:13.234Z,100915.94
2022-12-27T22:03:17.571Z,100912.78
2022-12-27T22:08:20.501Z,100904.16
2022-12-27T22:13:23.512Z,100895.59
2022-12-27T22:18:31.174Z,100895.47
2022-12-27T22:23:34.736Z,100880.22
2022-12-27T22:28:37.527Z,100882.72
2022-12-27T22:33:42.023Z,100878.31
2022-12-27T22:38:49.440Z,100872.59
2022-12-27T22:43:54.453Z,100861.94
2022-12-27T22:49:00.943Z,100858.94
2022-12-27T22:54:05.162Z,100843.13
2022-12-27T22:59:08.746Z,100836.63
2022-12-27T23:04:14.662Z,100827.34
2022-12-27T23:09:17.495Z,100817.47
2022-12-27T23:14:20.309Z,100808.91
2022-12-27T23:19:25.665Z,100797.16
2022-12-27T23:24:28.405Z,100788.66
2022-12-27T23:29:31.143Z,100776.47
2022-12-27T23:34:35.286Z,100760.53
2022-12-27T23:39:38.076Z,100752.69
2022-12-27T23:44:40.847Z,100726.44
2022-12-27T23:49:44.997Z,100721.31
2022-12-27T23:54:47.757Z,100711.81
2022-12-27T23:59:51.527Z,100695.03
